Time;durP1;ratioP1;P1;durP2;ratioP2;P2;SDS_P1;SDS_P2;PMS_P1;PMS_P2;Temp;Humidity;BMP_temperature;BMP_pressure;BME280_temperature;BME280_humidity;BME280_pressure;Samples;Min_cycle;Max_cycle;Signal;HPM_P1;HPM_P2
2022/03/19 00:00:38;;;;;;;33.43;20.43;;;;;;;;;;5013498;28;20403;-77
2022/03/19 00:03:05;;;;;;;27.40;20.20;;;;;;;;;;5013418;28;20445;-78
2022/03/19 00:05:31;;;;;;;24.87;19.13;;;;;;;;;;5013196;28;20454;-77
2022/03/19 00:07:59;;;;;;;27.07;21.13;;;;;;;;;;5013101;28;20407;-77
2022/03/19 00:10:25;;;;;;;25.87;19.87;;;;;;;;;;5012162;28;20415;-77
2022/03/19 00:12:52;;;;;;;27.50;20.93;;;;;;;;;;5012294;28;20418;-77
2022/03/19 00:15:19;;;;;;;28.10;20.20;;;;;;;;;;5020730;28;20404;-77
2022/03/19 00:17:45;;;;;;;30.60;21.10;;;;;;;;;;5014744;28;20442;-77
2022/03/19 00:20:11;;;;;;;30.50;21.57;;;;;;;;;;5013043;28;20469;-77
2022/03/19 00:22:38;;;;;;;35.37;21.60;;;;;;;;;;5011639;28;20843;-77
2022/03/19 00:25:04;;;;;;;33.13;22.60;;;;;;;;;;5013028;28;20400;-77
2022/03/19 00:27:30;;;;;;;28.93;21.27;;;;;;;;;;5011530;28;20459;-77
2022/03/19 00:29:56;;;;;;;31.23;21.50;;;;;;;;;;5015105;28;20419;-77
2022/03/19 00:32:22;;;;;;;32.87;23.17;;;;;;;;;;5013337;28;20434;-77
2022/03/19 00:34:49;;;;;;;37.27;22.77;;;;;;;;;;5012830;28;20750;-77
2022/03/19 00:37:15;;;;;;;34.97;21.93;;;;;;;;;;5013019;28;20461;-78
2022/03/19 00:39:41;;;;;;;33.73;23.23;;;;;;;;;;5011366;28;20419;-78
2022/03/19 00:42:07;;;;;;;31.97;22.90;;;;;;;;;;5014313;28;20441;-78
2022/03/19 00:44:33;;;;;;;30.70;22.90;;;;;;;;;;5016444;28;20430;-77
2022/03/19 00:46:59;;;;;;;31.63;23.27;;;;;;;;;;5016295;28;20867;-77
2022/03/19 00:49:26;;;;;;;34.13;23.53;;;;;;;;;;5015075;28;20410;-77
2022/03/19 00:51:52;;;;;;;36.23;23.37;;;;;;;;;;5016361;28;20473;-77
2022/03/19 00:54:18;;;;;;;37.20;25.53;;;;;;;;;;5016248;28;20403;-77
2022/03/19 00:56:46;;;;;;;36.10;24.70;;;;;;;;;;5016260;28;20407;-77
2022/03/19 00:59:12;;;;;;;36.60;25.70;;;;;;;;;;5016186;28;20414;-77
2022/03/19 01:01:38;;;;;;;37.33;24.83;;;;;;;;;;5044573;23;20482;-75
2022/03/19 01:04:05;;;;;;;36.80;24.87;;;;;;;;;;5032558;28;20421;-75
2022/03/19 01:06:31;;;;;;;38.50;26.53;;;;;;;;;;5016522;28;20475;-76
2022/03/19 01:08:57;;;;;;;38.03;26.37;;;;;;;;;;5016222;28;20410;-75
2022/03/19 01:11:23;;;;;;;41.67;28.07;;;;;;;;;;5016084;28;20428;-75
2022/03/19 01:13:52;;;;;;;40.57;28.23;;;;;;;;;;5015989;28;20396;-76
2022/03/19 01:16:19;;;;;;;43.00;28.10;;;;;;;;;;5016465;28;20419;-76
2022/03/19 01:18:46;;;;;;;39.87;27.30;;;;;;;;;;5016062;28;20407;-75
2022/03/19 01:21:12;;;;;;;39.50;28.60;;;;;;;;;;5015872;28;21010;-75
2022/03/19 01:23:38;;;;;;;41.47;30.07;;;;;;;;;;5016248;28;20538;-75
2022/03/19 01:26:04;;;;;;;44.83;28.13;;;;;;;;;;5016118;28;20542;-76
2022/03/19 01:28:30;;;;;;;50.10;29.13;;;;;;;;;;5015808;28;20411;-76
2022/03/19 01:30:56;;;;;;;46.60;29.40;;;;;;;;;;5015762;28;20431;-75
2022/03/19 01:33:23;;;;;;;40.57;30.00;;;;;;;;;;5015662;28;20404;-76
2022/03/19 01:35:49;;;;;;;44.37;29.27;;;;;;;;;;5015958;28;20433;-76
2022/03/19 01:38:15;;;;;;;45.93;32.30;;;;;;;;;;5015588;28;20403;-76
2022/03/19 01:40:41;;;;;;;44.30;31.97;;;;;;;;;;5016245;28;20899;-75
2022/03/19 01:43:07;;;;;;;52.50;32.23;;;;;;;;;;5015639;28;20431;-76
2022/03/19 01:45:33;;;;;;;46.70;30.83;;;;;;;;;;5015583;28;20538;-76
2022/03/19 01:48:00;;;;;;;48.43;32.47;;;;;;;;;;5015451;28;20498;-75
2022/03/19 01:50:27;;;;;;;45.93;32.03;;;;;;;;;;5015381;28;20447;-76
2022/03/19 01:52:53;;;;;;;47.43;31.90;;;;;;;;;;5014883;28;20419;-76
2022/03/19 01:55:20;;;;;;;52.77;32.10;;;;;;;;;;5015420;28;20430;-75
2022/03/19 01:57:47;;;;;;;52.23;34.03;;;;;;;;;;5015365;28;20482;-75
2022/03/19 02:00:17;;;;;;;57.50;33.03;;;;;;;;;;5015403;28;20408;-75
2022/03/19 02:02:44;;;;;;;58.37;32.50;;;;;;;;;;5013762;28;20447;-75
2022/03/19 02:05:14;;;;;;;50.60;35.60;;;;;;;;;;5015067;28;20856;-75
2022/03/19 02:07:40;;;;;;;52.03;34.37;;;;;;;;;;5015208;28;20931;-76
2022/03/19 02:10:07;;;;;;;49.63;31.90;;;;;;;;;;5014861;28;20399;-75
2022/03/19 02:12:33;;;;;;;56.57;36.80;;;;;;;;;;5015208;28;20995;-75
2022/03/19 02:14:59;;;;;;;55.80;35.33;;;;;;;;;;5013856;28;20826;-76
2022/03/19 02:17:26;;;;;;;54.90;35.60;;;;;;;;;;5015048;28;20450;-76
2022/03/19 02:19:53;;;;;;;57.57;35.97;;;;;;;;;;5015005;28;20443;-76
2022/03/19 02:22:20;;;;;;;55.13;35.50;;;;;;;;;;5014914;28;20841;-76
2022/03/19 02:27:32;;;;;;;57.93;37.63;;;;;;;;;;5015118;28;20970;-76
2022/03/19 02:29:58;;;;;;;60.17;38.70;;;;;;;;;;5014614;28;20403;-76
2022/03/19 02:32:25;;;;;;;59.63;39.20;;;;;;;;;;5014940;28;20438;-75
2022/03/19 02:34:51;;;;;;;62.17;39.37;;;;;;;;;;5014716;28;20431;-76
2022/03/19 02:37:17;;;;;;;70.90;41.90;;;;;;;;;;5022889;28;20974;-75
2022/03/19 02:39:43;;;;;;;64.80;40.23;;;;;;;;;;5013394;28;20907;-75
2022/03/19 02:42:09;;;;;;;67.43;39.53;;;;;;;;;;5013268;28;20514;-76
2022/03/19 02:44:36;;;;;;;69.90;42.80;;;;;;;;;;5014662;28;20407;-76
2022/03/19 02:47:06;;;;;;;71.57;41.27;;;;;;;;;;5014316;28;20447;-76
2022/03/19 02:49:32;;;;;;;71.00;44.30;;;;;;;;;;5014478;28;20408;-76
2022/03/19 02:51:58;;;;;;;71.43;43.90;;;;;;;;;;5014494;28;20431;-76
2022/03/19 02:54:25;;;;;;;67.03;42.37;;;;;;;;;;5014587;28;20404;-75
2022/03/19 02:56:52;;;;;;;78.70;43.80;;;;;;;;;;5014354;28;20407;-76
2022/03/19 02:59:22;;;;;;;73.50;43.77;;;;;;;;;;5014227;28;20903;-76
2022/03/19 03:01:50;;;;;;;66.70;42.80;;;;;;;;;;5013907;28;20462;-76
2022/03/19 03:04:16;;;;;;;70.57;45.60;;;;;;;;;;5013683;28;20415;-76
2022/03/19 03:06:44;;;;;;;71.77;45.00;;;;;;;;;;5014133;28;20967;-75
2022/03/19 03:09:10;;;;;;;72.07;43.70;;;;;;;;;;5014277;28;20987;-76
2022/03/19 03:11:37;;;;;;;70.43;44.70;;;;;;;;;;5014042;28;20437;-75
2022/03/19 03:14:03;;;;;;;67.80;44.30;;;;;;;;;;5014002;28;20400;-76
2022/03/19 03:16:29;;;;;;;75.80;45.50;;;;;;;;;;5014007;28;20407;-75
2022/03/19 03:18:56;;;;;;;73.20;44.17;;;;;;;;;;5012656;28;20483;-76
2022/03/19 03:21:22;;;;;;;78.30;44.60;;;;;;;;;;5012402;28;20490;-76
2022/03/19 03:23:48;;;;;;;73.73;43.70;;;;;;;;;;5013798;28;20407;-76
2022/03/19 03:26:14;;;;;;;75.00;43.30;;;;;;;;;;5013664;28;21022;-76
2022/03/19 03:28:40;;;;;;;73.73;44.17;;;;;;;;;;5013696;28;20482;-75
2022/03/19 03:31:07;;;;;;;67.07;41.87;;;;;;;;;;5013847;28;20764;-75
2022/03/19 03:33:33;;;;;;;70.70;45.43;;;;;;;;;;5013598;28;20915;-75
2022/03/19 03:35:59;;;;;;;70.70;42.83;;;;;;;;;;5013479;28;20399;-76
2022/03/19 03:38:25;;;;;;;68.30;40.83;;;;;;;;;;5013581;28;20407;-75
2022/03/19 03:40:52;;;;;;;65.63;42.33;;;;;;;;;;5013483;28;20413;-76
2022/03/19 03:43:19;;;;;;;69.10;43.17;;;;;;;;;;5013327;28;20514;-75
2022/03/19 03:45:45;;;;;;;67.53;41.50;;;;;;;;;;5013306;28;20450;-75
2022/03/19 03:48:11;;;;;;;73.37;45.10;;;;;;;;;;5013224;28;20418;-75
2022/03/19 03:50:38;;;;;;;64.47;42.10;;;;;;;;;;5014031;28;20915;-75
2022/03/19 03:53:07;;;;;;;69.57;41.73;;;;;;;;;;5013242;28;20510;-76
2022/03/19 03:55:34;;;;;;;58.97;39.70;;;;;;;;;;5013352;28;20407;-76
2022/03/19 03:58:01;;;;;;;80.30;43.77;;;;;;;;;;5013650;28;20416;-76
2022/03/19 04:00:27;;;;;;;67.97;41.63;;;;;;;;;;5013348;28;20427;-75
2022/03/19 04:02:53;;;;;;;67.00;43.37;;;;;;;;;;5013077;28;20443;-75
2022/03/19 04:05:20;;;;;;;65.47;41.17;;;;;;;;;;5013291;28;20442;-75
2022/03/19 04:07:46;;;;;;;71.50;42.47;;;;;;;;;;5022455;28;20429;-75
2022/03/19 04:10:12;;;;;;;71.63;44.80;;;;;;;;;;5033086;28;20398;-76
2022/03/19 04:12:38;;;;;;;60.73;39.80;;;;;;;;;;5028325;28;20458;-75
2022/03/19 04:15:05;;;;;;;70.60;40.07;;;;;;;;;;5034288;28;20833;-75
2022/03/19 04:17:31;;;;;;;65.07;41.07;;;;;;;;;;5036929;28;20402;-76
2022/03/19 04:19:57;;;;;;;61.13;40.50;;;;;;;;;;5037020;28;20405;-76
2022/03/19 04:22:23;;;;;;;63.43;41.07;;;;;;;;;;5036748;28;20497;-76
2022/03/19 04:24:49;;;;;;;62.80;39.87;;;;;;;;;;5036700;28;20452;-75
2022/03/19 04:27:15;;;;;;;60.93;37.43;;;;;;;;;;5036915;28;20449;-74
2022/03/19 04:29:41;;;;;;;62.57;39.00;;;;;;;;;;5036653;28;20481;-75
2022/03/19 04:32:08;;;;;;;62.10;40.80;;;;;;;;;;5036552;28;20418;-75
2022/03/19 04:34:34;;;;;;;62.57;38.50;;;;;;;;;;5036706;28;20476;-75
2022/03/19 04:37:00;;;;;;;61.77;39.50;;;;;;;;;;5036959;28;20770;-75
2022/03/19 04:39:26;;;;;;;67.33;38.67;;;;;;;;;;5036584;28;20398;-75
2022/03/19 04:41:52;;;;;;;63.80;37.00;;;;;;;;;;5036658;28;20422;-75
2022/03/19 04:44:19;;;;;;;68.70;39.20;;;;;;;;;;5036556;28;20402;-75
2022/03/19 04:46:45;;;;;;;64.13;38.10;;;;;;;;;;5036443;28;20446;-76
2022/03/19 04:49:11;;;;;;;59.70;36.30;;;;;;;;;;5036598;28;20445;-76
2022/03/19 04:51:38;;;;;;;66.80;38.00;;;;;;;;;;5026141;28;20434;-76
2022/03/19 04:54:04;;;;;;;56.13;35.60;;;;;;;;;;5016735;28;20501;-76
2022/03/19 04:56:31;;;;;;;66.87;36.80;;;;;;;;;;5023765;28;20426;-75
2022/03/19 04:58:58;;;;;;;59.40;37.07;;;;;;;;;;5036172;28;20410;-75
2022/03/19 05:01:28;;;;;;;66.33;38.47;;;;;;;;;;5035905;28;20945;-75
2022/03/19 05:03:54;;;;;;;60.47;36.80;;;;;;;;;;5036340;28;20426;-75
2022/03/19 05:06:21;;;;;;;62.87;38.20;;;;;;;;;;5036436;28;20794;-76
2022/03/19 05:08:47;;;;;;;60.00;36.47;;;;;;;;;;5036090;28;20446;-75
2022/03/19 05:11:13;;;;;;;58.70;37.20;;;;;;;;;;5036212;28;20493;-75
2022/03/19 05:13:39;;;;;;;61.27;35.40;;;;;;;;;;5036059;28;20403;-76
2022/03/19 05:16:05;;;;;;;55.90;35.03;;;;;;;;;;5035985;28;20957;-76
2022/03/19 05:18:31;;;;;;;55.43;34.77;;;;;;;;;;5035930;28;20395;-76
2022/03/19 05:20:58;;;;;;;54.30;34.40;;;;;;;;;;5036047;28;20465;-75
2022/03/19 05:23:24;;;;;;;54.20;34.13;;;;;;;;;;5035821;28;20560;-75
2022/03/19 05:25:52;;;;;;;53.83;33.73;;;;;;;;;;5035391;28;20515;-75
2022/03/19 05:28:18;;;;;;;58.77;32.90;;;;;;;;;;5033977;28;20497;-75
2022/03/19 05:30:44;;;;;;;56.93;34.27;;;;;;;;;;5035649;28;20459;-75
2022/03/19 05:33:10;;;;;;;52.73;31.67;;;;;;;;;;5035295;28;20469;-75
2022/03/19 05:35:36;;;;;;;54.90;33.17;;;;;;;;;;5035592;28;20413;-76
2022/03/19 05:38:04;;;;;;;54.73;34.00;;;;;;;;;;5035520;28;20394;-76
2022/03/19 05:40:30;;;;;;;48.93;32.50;;;;;;;;;;5035679;28;20899;-75
2022/03/19 05:42:57;;;;;;;60.03;34.60;;;;;;;;;;5035256;28;20475;-75
2022/03/19 05:45:23;;;;;;;59.73;35.17;;;;;;;;;;5034090;28;20407;-76
2022/03/19 05:47:49;;;;;;;55.00;35.47;;;;;;;;;;5035359;28;20802;-75
2022/03/19 05:50:15;;;;;;;51.43;34.13;;;;;;;;;;5035195;28;20402;-75
2022/03/19 05:52:42;;;;;;;60.67;34.10;;;;;;;;;;5035205;28;20986;-76
2022/03/19 05:55:08;;;;;;;65.27;38.00;;;;;;;;;;5035385;28;20457;-76
2022/03/19 05:57:35;;;;;;;55.80;32.90;;;;;;;;;;5035253;28;20423;-75
2022/03/19 06:00:01;;;;;;;53.63;32.27;;;;;;;;;;5035402;28;20485;-75
2022/03/19 06:02:27;;;;;;;57.07;34.60;;;;;;;;;;5034809;28;20453;-75
2022/03/19 06:04:53;;;;;;;53.63;34.57;;;;;;;;;;5033688;28;20954;-75
2022/03/19 06:07:20;;;;;;;54.43;34.60;;;;;;;;;;5033680;28;20802;-76
2022/03/19 06:09:46;;;;;;;53.37;33.83;;;;;;;;;;5035301;28;20406;-75
2022/03/19 06:12:12;;;;;;;53.27;32.30;;;;;;;;;;5034755;28;20446;-75
2022/03/19 06:14:38;;;;;;;56.97;33.97;;;;;;;;;;5034855;28;20418;-75
2022/03/19 06:17:04;;;;;;;60.97;34.83;;;;;;;;;;5034707;28;20452;-75
2022/03/19 06:19:30;;;;;;;50.20;32.90;;;;;;;;;;5034692;28;20410;-75
2022/03/19 06:21:56;;;;;;;53.33;35.40;;;;;;;;;;5034442;28;20423;-76
2022/03/19 06:24:23;;;;;;;54.23;34.60;;;;;;;;;;5033434;28;20413;-76
2022/03/19 06:26:50;;;;;;;57.90;34.00;;;;;;;;;;5034519;28;20434;-76
2022/03/19 06:29:17;;;;;;;58.63;32.67;;;;;;;;;;5034592;28;20407;-76
2022/03/19 06:31:43;;;;;;;46.80;29.83;;;;;;;;;;5034453;28;20954;-75
2022/03/19 06:34:09;;;;;;;47.20;30.73;;;;;;;;;;5034328;28;20395;-75
2022/03/19 06:39:20;;;;;;;53.07;31.00;;;;;;;;;;5033303;28;20387;-75
2022/03/19 06:41:46;;;;;;;47.90;31.40;;;;;;;;;;5034162;28;20425;-75
2022/03/19 06:44:12;;;;;;;53.03;31.13;;;;;;;;;;5034270;28;20406;-75
2022/03/19 06:46:38;;;;;;;46.33;29.60;;;;;;;;;;5034141;28;20445;-75
2022/03/19 06:49:04;;;;;;;45.50;30.83;;;;;;;;;;5032975;28;20426;-75
2022/03/19 06:51:30;;;;;;;46.13;30.67;;;;;;;;;;5034058;28;20429;-75
2022/03/19 06:53:56;;;;;;;49.40;29.50;;;;;;;;;;5034208;28;20409;-75
2022/03/19 06:56:22;;;;;;;48.70;29.13;;;;;;;;;;5034333;28;20405;-75
2022/03/19 06:58:48;;;;;;;49.30;29.00;;;;;;;;;;5034290;28;20783;-75
2022/03/19 07:01:17;;;;;;;45.10;29.37;;;;;;;;;;5033678;28;20422;-75
2022/03/19 07:03:44;;;;;;;44.00;29.53;;;;;;;;;;5046426;23;20492;-77
2022/03/19 07:06:11;;;;;;;50.30;28.57;;;;;;;;;;5038841;28;20458;-77
2022/03/19 07:08:37;;;;;;;45.10;26.67;;;;;;;;;;5034043;28;20406;-77
2022/03/19 07:11:04;;;;;;;42.80;27.87;;;;;;;;;;5032628;28;20410;-77
2022/03/19 07:13:31;;;;;;;39.67;26.63;;;;;;;;;;5034081;28;20418;-77
2022/03/19 07:15:57;;;;;;;38.80;25.13;;;;;;;;;;5032499;28;20439;-77
2022/03/19 07:18:23;;;;;;;40.13;25.63;;;;;;;;;;5033868;28;20390;-77
2022/03/19 07:20:52;;;;;;;40.07;26.50;;;;;;;;;;5033294;28;20406;-77
2022/03/19 07:23:19;;;;;;;45.53;26.13;;;;;;;;;;5033058;28;20455;-77
2022/03/19 07:25:45;;;;;;;37.50;25.37;;;;;;;;;;5033345;28;20454;-77
2022/03/19 07:28:12;;;;;;;37.10;23.50;;;;;;;;;;5033564;28;20899;-77
2022/03/19 07:30:39;;;;;;;34.53;22.93;;;;;;;;;;5033366;28;20402;-77
2022/03/19 07:33:05;;;;;;;37.80;23.47;;;;;;;;;;5033852;28;20419;-77
2022/03/19 07:35:32;;;;;;;35.73;23.50;;;;;;;;;;5034029;28;20763;-77
2022/03/19 07:37:58;;;;;;;32.43;21.73;;;;;;;;;;5033508;28;20402;-77
2022/03/19 07:43:10;;;;;;;32.50;21.03;;;;;;;;;;5033510;28;20945;-77
2022/03/19 07:45:37;;;;;;;31.60;22.93;;;;;;;;;;5032863;28;20422;-77
2022/03/19 07:48:04;;;;;;;34.77;22.37;;;;;;;;;;5033708;28;20422;-77
2022/03/19 07:50:30;;;;;;;37.37;23.33;;;;;;;;;;5033375;28;20770;-77
2022/03/19 07:52:57;;;;;;;35.23;21.70;;;;;;;;;;5033602;28;20497;-77
2022/03/19 07:55:24;;;;;;;28.53;21.00;;;;;;;;;;5032013;28;20460;-77
2022/03/19 07:57:50;;;;;;;30.20;21.73;;;;;;;;;;5031956;28;20410;-77
2022/03/19 08:00:16;;;;;;;30.70;20.67;;;;;;;;;;5032467;28;20406;-77
2022/03/19 08:02:43;;;;;;;32.77;20.37;;;;;;;;;;5031674;28;20811;-77
2022/03/19 08:05:09;;;;;;;26.03;19.23;;;;;;;;;;5033176;28;20430;-78
2022/03/19 08:07:37;;;;;;;27.13;18.90;;;;;;;;;;5032969;28;20545;-77
2022/03/19 08:10:03;;;;;;;34.77;21.77;;;;;;;;;;5032926;28;20399;-77
2022/03/19 08:12:29;;;;;;;31.43;19.67;;;;;;;;;;5032818;28;20422;-77
2022/03/19 08:14:56;;;;;;;31.00;21.40;;;;;;;;;;5033186;28;20406;-77
2022/03/19 08:17:22;;;;;;;27.70;20.10;;;;;;;;;;5033021;28;20895;-77
2022/03/19 08:19:48;;;;;;;28.73;20.60;;;;;;;;;;5030973;28;20451;-78
2022/03/19 08:22:14;;;;;;;26.03;19.47;;;;;;;;;;5034337;28;20969;-78
2022/03/19 08:24:40;;;;;;;28.97;20.33;;;;;;;;;;5033689;28;20425;-78
2022/03/19 08:27:06;;;;;;;26.33;19.03;;;;;;;;;;5035439;28;20965;-78
2022/03/19 08:29:32;;;;;;;23.03;18.33;;;;;;;;;;5033311;28;20446;-77
2022/03/19 08:31:58;;;;;;;24.53;18.10;;;;;;;;;;5032630;28;20960;-77
2022/03/19 08:34:25;;;;;;;24.30;17.67;;;;;;;;;;5030117;28;20457;-77
2022/03/19 08:36:52;;;;;;;31.40;19.07;;;;;;;;;;5032660;28;20802;-77
2022/03/19 08:42:03;;;;;;;23.20;16.07;;;;;;;;;;5032567;28;20476;-77
2022/03/19 08:44:29;;;;;;;28.53;18.30;;;;;;;;;;5030980;28;20414;-78
2022/03/19 08:46:55;;;;;;;27.43;16.40;;;;;;;;;;5033088;28;20473;-77
2022/03/19 08:49:21;;;;;;;24.30;17.50;;;;;;;;;;5032570;28;20414;-77
2022/03/19 08:51:47;;;;;;;27.43;18.33;;;;;;;;;;5034587;28;20398;-78
2022/03/19 08:54:15;;;;;;;26.93;17.10;;;;;;;;;;5034488;28;20421;-77
2022/03/19 08:56:42;;;;;;;31.17;18.93;;;;;;;;;;5034480;28;20953;-78
2022/03/19 08:59:09;;;;;;;30.90;19.57;;;;;;;;;;5037578;28;20438;-77
2022/03/19 09:01:36;;;;;;;31.90;19.93;;;;;;;;;;5036897;28;20457;-77
2022/03/19 09:04:02;;;;;;;26.80;18.97;;;;;;;;;;5037316;28;20460;-77
2022/03/19 09:06:28;;;;;;;27.33;19.17;;;;;;;;;;5037084;28;20449;-77
2022/03/19 09:08:54;;;;;;;26.90;18.40;;;;;;;;;;5036145;28;20425;-77
2022/03/19 09:11:21;;;;;;;26.47;18.70;;;;;;;;;;5035081;28;20253;-77
2022/03/19 09:13:48;;;;;;;30.73;20.20;;;;;;;;;;5034601;28;20426;-78
2022/03/19 09:16:14;;;;;;;29.10;19.30;;;;;;;;;;5034792;28;20406;-78
2022/03/19 09:18:40;;;;;;;27.53;18.90;;;;;;;;;;5034794;28;20419;-77
2022/03/19 09:21:06;;;;;;;28.33;20.90;;;;;;;;;;5035132;28;20514;-77
2022/03/19 09:23:32;;;;;;;28.70;19.77;;;;;;;;;;5035212;28;20799;-77
2022/03/19 09:25:58;;;;;;;27.73;20.00;;;;;;;;;;5036062;28;20529;-78
2022/03/19 09:28:24;;;;;;;26.60;19.40;;;;;;;;;;5034238;28;20533;-78
2022/03/19 09:30:51;;;;;;;26.93;19.50;;;;;;;;;;5037109;28;20403;-77
2022/03/19 09:33:17;;;;;;;29.20;20.50;;;;;;;;;;5033775;28;20418;-78
2022/03/19 09:35:43;;;;;;;30.47;19.37;;;;;;;;;;5034806;28;20764;-77
2022/03/19 09:38:09;;;;;;;28.57;21.50;;;;;;;;;;5037344;28;20403;-79
2022/03/19 09:40:35;;;;;;;28.00;20.00;;;;;;;;;;5035624;28;20424;-77
2022/03/19 09:43:01;;;;;;;33.15;21.52;;;;;;;;;;5036103;28;20409;-78
2022/03/19 09:45:29;;;;;;;28.50;21.50;;;;;;;;;;5037319;28;20537;-77
2022/03/19 09:47:55;;;;;;;30.90;20.73;;;;;;;;;;5035163;28;20437;-77
2022/03/19 09:50:22;;;;;;;29.77;21.90;;;;;;;;;;5034965;28;20575;-77
2022/03/19 09:52:52;;;;;;;30.53;20.87;;;;;;;;;;5033403;28;20450;-77
2022/03/19 09:55:20;;;;;;;24.40;18.80;;;;;;;;;;5052512;28;20451;-77
2022/03/19 09:57:46;;;;;;;29.53;21.57;;;;;;;;;;5046178;28;20414;-77
2022/03/19 10:00:13;;;;;;;32.60;21.07;;;;;;;;;;5036590;28;20925;-77
2022/03/19 10:02:59;;;;;;;30.80;20.17;;;;;;;;;;5033893;28;20500;-77
2022/03/19 10:10:58;;;;;;;26.00;19.00;;;;;;;;;;5027141;28;20390;-78
2022/03/19 10:13:25;;;;;;;23.57;18.73;;;;;;;;;;5035764;28;20478;-78
2022/03/19 10:15:51;;;;;;;25.73;19.10;;;;;;;;;;5037907;28;20422;-79
2022/03/19 10:18:18;;;;;;;26.53;18.87;;;;;;;;;;5036686;28;20779;-78
2022/03/19 10:20:44;;;;;;;22.63;17.67;;;;;;;;;;5035570;28;20411;-78
2022/03/19 10:23:10;;;;;;;29.10;19.93;;;;;;;;;;5042588;28;20426;-77
2022/03/19 10:25:36;;;;;;;28.50;17.80;;;;;;;;;;5036497;28;20415;-78
2022/03/19 10:28:11;;;;;;;24.77;16.33;;;;;;;;;;5036229;28;20422;-78
2022/03/19 10:30:38;;;;;;;24.02;18.20;;;;;;;;;;5032916;28;20424;-76
2022/03/19 10:33:04;;;;;;;21.80;16.10;;;;;;;;;;5034097;28;20195;-76
2022/03/19 10:35:32;;;;;;;28.07;17.57;;;;;;;;;;5032301;28;20848;-77
2022/03/19 10:37:59;;;;;;;22.75;17.73;;;;;;;;;;5032362;28;20406;-77
2022/03/19 10:40:38;;;;;;;23.90;16.80;;;;;;;;;;5034577;28;20180;-77
2022/03/19 10:43:06;;;;;;;24.67;15.20;;;;;;;;;;5034467;28;20530;-78
2022/03/19 10:45:32;;;;;;;20.50;15.50;;;;;;;;;;5035598;28;20494;-78
2022/03/19 10:48:02;;;;;;;21.77;16.40;;;;;;;;;;5035726;28;20427;-78
2022/03/19 10:50:28;;;;;;;24.00;16.40;;;;;;;;;;5034417;28;20458;-75
2022/03/19 10:52:56;;;;;;;23.00;15.23;;;;;;;;;;5036018;28;20449;-77
2022/03/19 10:55:22;;;;;;;20.50;15.67;;;;;;;;;;5036107;28;20560;-78
2022/03/19 10:57:48;;;;;;;21.05;15.32;;;;;;;;;;5036354;28;20416;-78
2022/03/19 11:00:16;;;;;;;19.60;15.70;;;;;;;;;;5036541;28;20172;-78
2022/03/19 11:02:47;;;;;;;22.50;15.67;;;;;;;;;;5035684;28;20497;-78
2022/03/19 11:05:13;;;;;;;24.70;15.40;;;;;;;;;;5033586;28;20934;-78
2022/03/19 11:07:43;;;;;;;19.53;14.07;;;;;;;;;;5035125;28;20453;-77
2022/03/19 11:10:11;;;;;;;18.23;13.87;;;;;;;;;;5035624;28;20391;-77
2022/03/19 11:12:40;;;;;;;22.43;13.73;;;;;;;;;;5035076;28;20425;-77
2022/03/19 11:15:09;;;;;;;23.42;14.13;;;;;;;;;;5034310;28;20421;-77
2022/03/19 11:17:36;;;;;;;18.27;14.70;;;;;;;;;;5034539;28;20596;-77
2022/03/19 11:20:05;;;;;;;27.17;15.53;;;;;;;;;;5030237;28;20953;-77
2022/03/19 11:22:39;;;;;;;20.83;14.70;;;;;;;;;;5031092;28;20448;-77
2022/03/19 11:25:24;;;;;;;20.43;14.57;;;;;;;;;;5021180;28;20538;-78
2022/03/19 11:27:51;;;;;;;20.02;14.35;;;;;;;;;;5036539;28;20444;-77
2022/03/19 11:30:17;;;;;;;22.02;15.88;;;;;;;;;;5033881;28;20424;-78
2022/03/19 11:33:02;;;;;;;18.63;14.87;;;;;;;;;;5036144;28;20663;-78
2022/03/19 11:35:28;;;;;;;20.33;14.00;;;;;;;;;;5013389;28;20447;-77
2022/03/19 11:38:01;;;;;;;17.63;13.60;;;;;;;;;;5031557;28;20476;-78
2022/03/19 11:40:35;;;;;;;24.17;15.07;;;;;;;;;;5033339;28;20419;-77
2022/03/19 11:43:01;;;;;;;21.90;14.07;;;;;;;;;;5032691;28;20790;-77
2022/03/19 11:45:37;;;;;;;17.70;13.83;;;;;;;;;;5035225;28;20433;-77
2022/03/19 11:48:04;;;;;;;20.52;14.35;;;;;;;;;;5034377;28;20319;-77
2022/03/19 11:50:31;;;;;;;20.55;14.82;;;;;;;;;;5032956;28;20456;-77
2022/03/19 11:52:57;;;;;;;22.53;16.77;;;;;;;;;;5034230;28;20184;-77
2022/03/19 11:55:26;;;;;;;21.63;15.10;;;;;;;;;;5033337;28;20410;-77
2022/03/19 11:57:58;;;;;;;22.73;15.97;;;;;;;;;;5033575;28;20413;-77
2022/03/19 12:00:26;;;;;;;22.40;15.60;;;;;;;;;;5035012;28;20403;-78
2022/03/19 12:03:05;;;;;;;20.40;14.60;;;;;;;;;;5035862;28;20540;-78
2022/03/19 12:05:32;;;;;;;17.17;13.50;;;;;;;;;;5033239;28;20220;-77
2022/03/19 12:08:05;;;;;;;19.10;14.70;;;;;;;;;;5031121;28;20560;-77
2022/03/19 12:10:39;;;;;;;18.60;14.15;;;;;;;;;;5032328;28;20449;-77
2022/03/19 12:13:23;;;;;;;20.10;15.60;;;;;;;;;;5013331;28;20204;-77
2022/03/19 12:15:50;;;;;;;20.43;15.37;;;;;;;;;;5030348;28;20736;-78
2022/03/19 12:18:26;;;;;;;19.60;14.60;;;;;;;;;;5032495;28;20413;-77
2022/03/19 12:20:53;;;;;;;17.53;12.97;;;;;;;;;;5034699;28;20493;-78
2022/03/19 12:23:20;;;;;;;20.20;13.30;;;;;;;;;;5032883;28;20576;-76
2022/03/19 12:25:51;;;;;;;19.27;14.20;;;;;;;;;;5032070;28;20516;-77
2022/03/19 12:28:17;;;;;;;20.00;14.27;;;;;;;;;;5032677;28;20436;-77
2022/03/19 12:30:44;;;;;;;22.20;15.82;;;;;;;;;;5033396;28;20409;-77
2022/03/19 12:33:10;;;;;;;18.90;14.40;;;;;;;;;;5036610;28;20670;-77
2022/03/19 12:35:42;;;;;;;18.43;14.10;;;;;;;;;;5038150;28;20413;-77
2022/03/19 12:38:08;;;;;;;22.03;15.83;;;;;;;;;;5040580;28;20414;-77
2022/03/19 12:43:20;;;;;;;20.70;13.47;;;;;;;;;;5040214;28;20467;-77
2022/03/19 12:45:48;;;;;;;17.20;12.97;;;;;;;;;;5039799;28;20452;-78
2022/03/19 12:48:16;;;;;;;18.80;14.20;;;;;;;;;;5038292;28;20451;-78
2022/03/19 12:50:49;;;;;;;22.60;14.90;;;;;;;;;;5035843;28;20415;-78
2022/03/19 12:53:15;;;;;;;23.13;14.80;;;;;;;;;;5037967;28;20523;-78
2022/03/19 12:55:41;;;;;;;26.33;16.23;;;;;;;;;;5041984;28;20466;-78
2022/03/19 12:58:07;;;;;;;24.10;16.53;;;;;;;;;;5038851;28;20410;-78
2022/03/19 13:00:33;;;;;;;20.23;15.37;;;;;;;;;;5037064;28;20460;-78
2022/03/19 13:02:59;;;;;;;20.93;14.27;;;;;;;;;;5035761;28;20779;-78
2022/03/19 13:05:25;;;;;;;19.50;14.97;;;;;;;;;;5037853;28;20407;-78
2022/03/19 13:08:07;;;;;;;20.40;14.47;;;;;;;;;;5038729;28;20462;-78
2022/03/19 13:10:46;;;;;;;22.40;15.47;;;;;;;;;;5037892;28;20413;-77
2022/03/19 13:13:13;;;;;;;20.27;13.73;;;;;;;;;;5037470;28;20454;-77
2022/03/19 13:15:50;;;;;;;22.10;14.70;;;;;;;;;;5037127;28;20406;-77
2022/03/19 13:18:35;;;;;;;25.13;16.30;;;;;;;;;;5051041;23;20866;-77
2022/03/19 13:21:03;;;;;;;21.60;14.80;;;;;;;;;;5035304;28;20401;-77
2022/03/19 13:23:32;;;;;;;26.90;17.03;;;;;;;;;;5035512;28;20407;-78
2022/03/19 13:25:59;;;;;;;24.97;17.50;;;;;;;;;;5036205;28;20485;-77
2022/03/19 13:28:26;;;;;;;22.20;16.77;;;;;;;;;;5037329;28;20442;-78
2022/03/19 13:30:52;;;;;;;21.87;17.20;;;;;;;;;;5037016;28;20407;-78
2022/03/19 13:33:18;;;;;;;22.60;16.53;;;;;;;;;;5037465;28;20418;-79
2022/03/19 13:35:48;;;;;;;21.07;15.53;;;;;;;;;;5038717;28;20894;-77
2022/03/19 13:38:15;;;;;;;21.57;16.87;;;;;;;;;;5038230;28;20439;-78
2022/03/19 13:40:42;;;;;;;23.53;14.83;;;;;;;;;;5040603;28;20395;-77
2022/03/19 13:43:08;;;;;;;19.97;14.43;;;;;;;;;;5035904;28;20406;-77
2022/03/19 13:45:34;;;;;;;20.60;14.70;;;;;;;;;;5035353;28;20426;-78
2022/03/19 13:48:04;;;;;;;23.93;14.43;;;;;;;;;;5035613;28;20461;-78
2022/03/19 13:50:31;;;;;;;17.23;13.80;;;;;;;;;;5037156;28;20414;-77
2022/03/19 13:52:59;;;;;;;21.87;14.70;;;;;;;;;;5036080;28;20913;-78
2022/03/19 13:55:28;;;;;;;23.47;12.53;;;;;;;;;;5036006;28;20563;-78
2022/03/19 13:58:01;;;;;;;18.20;14.20;;;;;;;;;;5036878;28;20457;-78
2022/03/19 14:00:28;;;;;;;16.03;13.33;;;;;;;;;;5035702;28;20410;-78
2022/03/19 14:02:55;;;;;;;18.50;13.68;;;;;;;;;;5035127;28;20417;-78
2022/03/19 14:05:22;;;;;;;16.70;12.50;;;;;;;;;;5037807;28;20199;-79
2022/03/19 14:07:48;;;;;;;15.93;13.40;;;;;;;;;;5037568;28;20544;-79
2022/03/19 14:10:15;;;;;;;16.50;13.40;;;;;;;;;;5035450;28;20447;-77
2022/03/19 14:12:43;;;;;;;19.30;13.67;;;;;;;;;;5035966;28;20934;-77
2022/03/19 14:15:09;;;;;;;24.33;15.20;;;;;;;;;;5034080;28;20410;-77
2022/03/19 14:17:46;;;;;;;17.80;13.40;;;;;;;;;;5036431;28;20406;-79
2022/03/19 14:20:12;;;;;;;16.77;13.07;;;;;;;;;;5035417;28;20564;-78
2022/03/19 14:22:38;;;;;;;15.87;13.93;;;;;;;;;;5035821;28;20497;-79
2022/03/19 14:25:05;;;;;;;17.40;13.33;;;;;;;;;;5037283;28;20496;-79
2022/03/19 14:27:31;;;;;;;18.43;13.37;;;;;;;;;;5034394;28;20496;-77
2022/03/19 14:29:58;;;;;;;20.43;14.30;;;;;;;;;;5035283;28;20447;-79
2022/03/19 14:32:24;;;;;;;22.70;15.73;;;;;;;;;;5034581;28;20430;-78
2022/03/19 14:34:50;;;;;;;16.67;13.40;;;;;;;;;;5034933;28;20394;-78